Terminal Aerodrome Forecast
Issued by NWS Wilmington, OH

Current Version | Previous Version | Graphics & Text | Print | Product List | Glossary On
Versions: 1 2 3 4 5 6 7 8 9 10 11 12 13 14 15 16 17 18 19 20 21
922
FTUS41 KILN 180414 AAA
TAFDAY
TAF AMD
KDAY 180414Z 1804/1824 21008KT P6SM SCT010 SCT060
      TEMPO 1804/1807 BKN008
     FM180700 23007KT P6SM SCT150
     FM181400 26011KT P6SM SCT040 SCT200=

USA.gov is the U.S. government's official web portal to all federal, state and local government web resources and services.